sensor_id;sensor_type;location;lat;lon;timestamp;temperature;humidity
49236;DHT22;35067;48.134;8.378;2023-06-10T00:00:29;14.30;81.60
49236;DHT22;35067;48.134;8.378;2023-06-10T00:01:32;14.20;81.70
49236;DHT22;35067;48.134;8.378;2023-06-10T00:02:34;14.20;81.90
49236;DHT22;35067;48.134;8.378;2023-06-10T00:03:35;14.20;82.00
49236;DHT22;35067;48.134;8.378;2023-06-10T00:04:36;14.20;82.00
49236;DHT22;35067;48.134;8.378;2023-06-10T00:05:37;14.20;82.20
49236;DHT22;35067;48.134;8.378;2023-06-10T00:06:38;14.20;82.20
49236;DHT22;35067;48.134;8.378;2023-06-10T00:07:39;14.20;82.30
49236;DHT22;35067;48.134;8.378;2023-06-10T00:08:41;14.10;82.30
49236;DHT22;35067;48.134;8.378;2023-06-10T00:09:42;14.10;82.10
49236;DHT22;35067;48.134;8.378;2023-06-10T00:10:43;14.10;82.40
49236;DHT22;35067;48.134;8.378;2023-06-10T00:11:45;14.10;82.60
49236;DHT22;35067;48.134;8.378;2023-06-10T00:12:46;14.10;82.50
49236;DHT22;35067;48.134;8.378;2023-06-10T00:13:48;14.10;82.40
49236;DHT22;35067;48.134;8.378;2023-06-10T00:14:49;14.10;82.50
49236;DHT22;35067;48.134;8.378;2023-06-10T00:15:52;14.10;82.60
49236;DHT22;35067;48.134;8.378;2023-06-10T00:16:52;14.10;82.50
49236;DHT22;35067;48.134;8.378;2023-06-10T00:17:53;14.10;82.60
49236;DHT22;35067;48.134;8.378;2023-06-10T00:18:55;14.10;82.80
49236;DHT22;35067;48.134;8.378;2023-06-10T00:19:56;14.10;82.90
49236;DHT22;35067;48.134;8.378;2023-06-10T00:20:58;14.00;83.00
49236;DHT22;35067;48.134;8.378;2023-06-10T00:22:04;14.00;83.10
49236;DHT22;35067;48.134;8.378;2023-06-10T00:23:05;14.00;83.20
49236;DHT22;35067;48.134;8.378;2023-06-10T00:24:09;13.90;83.40
49236;DHT22;35067;48.134;8.378;2023-06-10T00:25:12;13.90;83.40
49236;DHT22;35067;48.134;8.378;2023-06-10T00:26:12;13.90;83.30
49236;DHT22;35067;48.134;8.378;2023-06-10T00:27:15;13.80;83.60
49236;DHT22;35067;48.134;8.378;2023-06-10T00:28:16;13.70;84.00
49236;DHT22;35067;48.134;8.378;2023-06-10T00:29:17;13.70;84.80
49236;DHT22;35067;48.134;8.378;2023-06-10T00:30:18;13.70;85.10
49236;DHT22;35067;48.134;8.378;2023-06-10T00:31:19;13.70;85.40
49236;DHT22;35067;48.134;8.378;2023-06-10T00:32:19;13.70;85.30
49236;DHT22;35067;48.134;8.378;2023-06-10T00:33:20;13.70;85.10
49236;DHT22;35067;48.134;8.378;2023-06-10T00:34:21;13.70;85.10
49236;DHT22;35067;48.134;8.378;2023-06-10T00:35:22;13.70;85.20
49236;DHT22;35067;48.134;8.378;2023-06-10T00:36:23;13.70;85.20
49236;DHT22;35067;48.134;8.378;2023-06-10T00:37:24;13.70;85.30
49236;DHT22;35067;48.134;8.378;2023-06-10T00:38:26;13.60;86.50
49236;DHT22;35067;48.134;8.378;2023-06-10T00:39:27;13.60;85.60
49236;DHT22;35067;48.134;8.378;2023-06-10T00:40:27;13.70;85.50
49236;DHT22;35067;48.134;8.378;2023-06-10T00:41:28;13.70;85.30
49236;DHT22;35067;48.134;8.378;2023-06-10T00:42:29;13.70;85.30
49236;DHT22;35067;48.134;8.378;2023-06-10T00:43:30;13.70;85.20
49236;DHT22;35067;48.134;8.378;2023-06-10T00:44:30;13.60;85.80
49236;DHT22;35067;48.134;8.378;2023-06-10T00:45:31;13.60;86.00
49236;DHT22;35067;48.134;8.378;2023-06-10T00:46:32;13.60;85.90
49236;DHT22;35067;48.134;8.378;2023-06-10T00:47:34;13.60;86.00
49236;DHT22;35067;48.134;8.378;2023-06-10T00:48:35;13.60;85.80
49236;DHT22;35067;48.134;8.378;2023-06-10T00:49:36;13.60;85.60
49236;DHT22;35067;48.134;8.378;2023-06-10T00:50:38;13.60;85.60
49236;DHT22;35067;48.134;8.378;2023-06-10T00:51:39;13.60;85.50
49236;DHT22;35067;48.134;8.378;2023-06-10T00:52:43;13.50;85.60
49236;DHT22;35067;48.134;8.378;2023-06-10T00:53:46;13.50;86.00
49236;DHT22;35067;48.134;8.378;2023-06-10T00:54:48;13.50;86.40
49236;DHT22;35067;48.134;8.378;2023-06-10T00:55:49;13.50;86.60
49236;DHT22;35067;48.134;8.378;2023-06-10T00:56:50;13.50;86.70
49236;DHT22;35067;48.134;8.378;2023-06-10T00:57:51;13.40;86.90
49236;DHT22;35067;48.134;8.378;2023-06-10T00:58:52;13.40;87.20
49236;DHT22;35067;48.134;8.378;2023-06-10T00:59:54;13.30;87.50
49236;DHT22;35067;48.134;8.378;2023-06-10T01:00:54;13.30;87.70
49236;DHT22;35067;48.134;8.378;2023-06-10T01:01:56;13.30;87.80
49236;DHT22;35067;48.134;8.378;2023-06-10T01:02:57;13.30;88.00
49236;DHT22;35067;48.134;8.378;2023-06-10T01:03:58;13.30;88.10
49236;DHT22;35067;48.134;8.378;2023-06-10T01:04:59;13.30;88.10
49236;DHT22;35067;48.134;8.378;2023-06-10T01:06:13;13.30;88.60
49236;DHT22;35067;48.134;8.378;2023-06-10T01:07:25;13.20;89.80
49236;DHT22;35067;48.134;8.378;2023-06-10T01:08:41;13.20;89.20
49236;DHT22;35067;48.134;8.378;2023-06-10T01:10:11;13.10;89.80
49236;DHT22;35067;48.134;8.378;2023-06-10T01:11:21;13.10;90.00
49236;DHT22;35067;48.134;8.378;2023-06-10T01:13:43;13.10;90.10
49236;DHT22;35067;48.134;8.378;2023-06-10T01:14:46;13.00;90.00
49236;DHT22;35067;48.134;8.378;2023-06-10T01:15:49;13.10;90.00
49236;DHT22;35067;48.134;8.378;2023-06-10T01:16:52;13.10;90.00
49236;DHT22;35067;48.134;8.378;2023-06-10T01:18:59;13.10;89.90
49236;DHT22;35067;48.134;8.378;2023-06-10T01:20:00;13.20;89.70
49236;DHT22;35067;48.134;8.378;2023-06-10T01:21:04;13.20;89.80
49236;DHT22;35067;48.134;8.378;2023-06-10T01:22:05;13.20;89.70
49236;DHT22;35067;48.134;8.378;2023-06-10T01:23:07;13.10;89.60
49236;DHT22;35067;48.134;8.378;2023-06-10T01:24:08;13.20;89.70
49236;DHT22;35067;48.134;8.378;2023-06-10T01:25:08;13.10;89.60
49236;DHT22;35067;48.134;8.378;2023-06-10T01:26:11;13.10;89.80
49236;DHT22;35067;48.134;8.378;2023-06-10T01:27:14;13.10;90.00
49236;DHT22;35067;48.134;8.378;2023-06-10T01:28:30;13.10;90.00
49236;DHT22;35067;48.134;8.378;2023-06-10T01:29:43;13.10;90.50
49236;DHT22;35067;48.134;8.378;2023-06-10T01:31:23;13.10;90.00
49236;DHT22;35067;48.134;8.378;2023-06-10T01:32:40;13.10;89.90
49236;DHT22;35067;48.134;8.378;2023-06-10T01:33:51;13.10;89.80
49236;DHT22;35067;48.134;8.378;2023-06-10T01:34:53;13.00;90.00
49236;DHT22;35067;48.134;8.378;2023-06-10T01:35:58;13.00;90.30
49236;DHT22;35067;48.134;8.378;2023-06-10T01:37:00;12.90;90.40
49236;DHT22;35067;48.134;8.378;2023-06-10T01:38:02;12.90;90.30
49236;DHT22;35067;48.134;8.378;2023-06-10T01:39:04;12.90;90.40
49236;DHT22;35067;48.134;8.378;2023-06-10T01:40:07;12.90;90.30
49236;DHT22;35067;48.134;8.378;2023-06-10T01:41:08;12.90;90.40
49236;DHT22;35067;48.134;8.378;2023-06-10T01:42:11;12.90;90.50
49236;DHT22;35067;48.134;8.378;2023-06-10T01:43:12;12.80;90.80
49236;DHT22;35067;48.134;8.378;2023-06-10T01:44:18;12.80;90.80
49236;DHT22;35067;48.134;8.378;2023-06-10T01:45:20;12.90;90.80
49236;DHT22;35067;48.134;8.378;2023-06-10T01:46:20;12.90;90.70
49236;DHT22;35067;48.134;8.378;2023-06-10T01:47:22;12.90;90.60
49236;DHT22;35067;48.134;8.378;2023-06-10T01:48:22;12.90;90.70
49236;DHT22;35067;48.134;8.378;2023-06-10T01:49:24;12.90;90.90
49236;DHT22;35067;48.134;8.378;2023-06-10T01:50:26;12.80;90.90
49236;DHT22;35067;48.134;8.378;2023-06-10T01:51:27;12.80;90.90
49236;DHT22;35067;48.134;8.378;2023-06-10T01:52:28;12.80;90.90
49236;DHT22;35067;48.134;8.378;2023-06-10T01:53:28;12.80;90.90
49236;DHT22;35067;48.134;8.378;2023-06-10T01:54:29;12.80;91.00
49236;DHT22;35067;48.134;8.378;2023-06-10T01:55:30;12.80;91.00
49236;DHT22;35067;48.134;8.378;2023-06-10T01:56:30;12.70;91.00
49236;DHT22;35067;48.134;8.378;2023-06-10T01:57:31;12.70;91.20
49236;DHT22;35067;48.134;8.378;2023-06-10T01:58:34;12.70;91.40
49236;DHT22;35067;48.134;8.378;2023-06-10T01:59:35;12.70;91.50
49236;DHT22;35067;48.134;8.378;2023-06-10T02:00:37;12.70;91.40
49236;DHT22;35067;48.134;8.378;2023-06-10T02:01:38;12.70;91.50
49236;DHT22;35067;48.134;8.378;2023-06-10T02:02:39;12.70;91.60
49236;DHT22;35067;48.134;8.378;2023-06-10T02:03:39;12.70;91.60
49236;DHT22;35067;48.134;8.378;2023-06-10T02:04:40;12.70;91.70
49236;DHT22;35067;48.134;8.378;2023-06-10T02:05:41;12.60;91.60
49236;DHT22;35067;48.134;8.378;2023-06-10T02:06:44;12.70;91.50
49236;DHT22;35067;48.134;8.378;2023-06-10T02:07:45;12.70;91.50
49236;DHT22;35067;48.134;8.378;2023-06-10T02:08:46;12.70;91.50
49236;DHT22;35067;48.134;8.378;2023-06-10T02:09:47;12.70;91.40
49236;DHT22;35067;48.134;8.378;2023-06-10T02:10:47;12.70;91.50
49236;DHT22;35067;48.134;8.378;2023-06-10T02:11:48;12.70;91.60
49236;DHT22;35067;48.134;8.378;2023-06-10T02:12:49;12.70;91.70
49236;DHT22;35067;48.134;8.378;2023-06-10T02:13:50;12.70;91.70
49236;DHT22;35067;48.134;8.378;2023-06-10T02:14:51;12.70;91.70
49236;DHT22;35067;48.134;8.378;2023-06-10T02:15:52;12.70;91.70
49236;DHT22;35067;48.134;8.378;2023-06-10T02:16:54;12.60;91.90
49236;DHT22;35067;48.134;8.378;2023-06-10T02:17:56;12.60;92.20
49236;DHT22;35067;48.134;8.378;2023-06-10T02:18:58;12.50;92.30
49236;DHT22;35067;48.134;8.378;2023-06-10T02:20:01;12.60;92.40
49236;DHT22;35067;48.134;8.378;2023-06-10T02:21:04;12.50;92.40
49236;DHT22;35067;48.134;8.378;2023-06-10T02:22:07;12.60;92.40
49236;DHT22;35067;48.134;8.378;2023-06-10T02:23:09;12.50;92.50
49236;DHT22;35067;48.134;8.378;2023-06-10T02:24:10;12.50;92.80
49236;DHT22;35067;48.134;8.378;2023-06-10T02:25:10;12.50;92.60
49236;DHT22;35067;48.134;8.378;2023-06-10T02:26:11;12.50;92.50
49236;DHT22;35067;48.134;8.378;2023-06-10T02:27:12;12.50;92.50
49236;DHT22;35067;48.134;8.378;2023-06-10T02:28:14;12.50;92.60
49236;DHT22;35067;48.134;8.378;2023-06-10T02:29:16;12.50;92.60
49236;DHT22;35067;48.134;8.378;2023-06-10T02:30:17;12.50;92.60
49236;DHT22;35067;48.134;8.378;2023-06-10T02:31:18;12.50;92.40
49236;DHT22;35067;48.134;8.378;2023-06-10T02:32:18;12.50;92.40
49236;DHT22;35067;48.134;8.378;2023-06-10T02:33:19;12.50;92.40
49236;DHT22;35067;48.134;8.378;2023-06-10T02:34:22;12.60;92.40
49236;DHT22;35067;48.134;8.378;2023-06-10T02:35:23;12.60;92.20
49236;DHT22;35067;48.134;8.378;2023-06-10T02:36:24;12.60;92.20
49236;DHT22;35067;48.134;8.378;2023-06-10T02:37:28;12.60;92.30
49236;DHT22;35067;48.134;8.378;2023-06-10T02:38:29;12.60;92.60
49236;DHT22;35067;48.134;8.378;2023-06-10T02:39:30;12.50;92.60
49236;DHT22;35067;48.134;8.378;2023-06-10T02:40:31;12.50;92.80
49236;DHT22;35067;48.134;8.378;2023-06-10T02:41:32;12.50;92.70
49236;DHT22;35067;48.134;8.378;2023-06-10T02:42:33;12.50;92.50
49236;DHT22;35067;48.134;8.378;2023-06-10T02:43:33;12.50;92.50
49236;DHT22;35067;48.134;8.378;2023-06-10T02:44:35;12.50;92.50
49236;DHT22;35067;48.134;8.378;2023-06-10T02:45:35;12.50;92.40
49236;DHT22;35067;48.134;8.378;2023-06-10T02:46:36;12.50;92.30
49236;DHT22;35067;48.134;8.378;2023-06-10T02:47:38;12.50;92.30
49236;DHT22;35067;48.134;8.378;2023-06-10T02:48:43;12.50;92.30
49236;DHT22;35067;48.134;8.378;2023-06-10T02:49:46;12.50;92.40
49236;DHT22;35067;48.134;8.378;2023-06-10T02:50:46;12.40;92.70
49236;DHT22;35067;48.134;8.378;2023-06-10T02:51:47;12.30;93.40
49236;DHT22;35067;48.134;8.378;2023-06-10T02:52:48;12.30;93.60
49236;DHT22;35067;48.134;8.378;2023-06-10T02:53:50;12.30;93.50
49236;DHT22;35067;48.134;8.378;2023-06-10T02:54:50;12.30;93.30
49236;DHT22;35067;48.134;8.378;2023-06-10T02:55:51;12.20;93.60
49236;DHT22;35067;48.134;8.378;2023-06-10T02:56:52;12.20;94.10
49236;DHT22;35067;48.134;8.378;2023-06-10T02:57:55;12.20;94.20
49236;DHT22;35067;48.134;8.378;2023-06-10T02:58:55;12.30;93.90
49236;DHT22;35067;48.134;8.378;2023-06-10T02:59:56;12.30;93.80
49236;DHT22;35067;48.134;8.378;2023-06-10T03:00:58;12.30;93.70
49236;DHT22;35067;48.134;8.378;2023-06-10T03:01:59;12.30;93.50
49236;DHT22;35067;48.134;8.378;2023-06-10T03:03:01;12.40;93.30
49236;DHT22;35067;48.134;8.378;2023-06-10T03:04:06;12.30;93.30
49236;DHT22;35067;48.134;8.378;2023-06-10T03:05:07;12.40;93.30
49236;DHT22;35067;48.134;8.378;2023-06-10T03:06:11;12.40;93.10
49236;DHT22;35067;48.134;8.378;2023-06-10T03:07:12;12.40;93.10
49236;DHT22;35067;48.134;8.378;2023-06-10T03:08:14;12.30;93.00
49236;DHT22;35067;48.134;8.378;2023-06-10T03:09:15;12.40;92.80
49236;DHT22;35067;48.134;8.378;2023-06-10T03:10:15;12.40;92.70
49236;DHT22;35067;48.134;8.378;2023-06-10T03:11:16;12.30;92.60
49236;DHT22;35067;48.134;8.378;2023-06-10T03:12:17;12.40;92.90
49236;DHT22;35067;48.134;8.378;2023-06-10T03:13:19;12.40;93.00
49236;DHT22;35067;48.134;8.378;2023-06-10T03:14:20;12.30;93.20
49236;DHT22;35067;48.134;8.378;2023-06-10T03:15:20;12.30;93.20
49236;DHT22;35067;48.134;8.378;2023-06-10T03:16:22;12.30;93.30
49236;DHT22;35067;48.134;8.378;2023-06-10T03:17:23;12.30;93.40
49236;DHT22;35067;48.134;8.378;2023-06-10T03:18:27;12.30;93.40
49236;DHT22;35067;48.134;8.378;2023-06-10T03:19:29;12.30;93.50
49236;DHT22;35067;48.134;8.378;2023-06-10T03:20:31;12.30;93.40
49236;DHT22;35067;48.134;8.378;2023-06-10T03:21:31;12.30;93.40
49236;DHT22;35067;48.134;8.378;2023-06-10T03:22:32;12.30;93.30
49236;DHT22;35067;48.134;8.378;2023-06-10T03:23:33;12.30;93.00
49236;DHT22;35067;48.134;8.378;2023-06-10T03:24:34;12.20;92.80
49236;DHT22;35067;48.134;8.378;2023-06-10T03:25:36;12.20;92.80
49236;DHT22;35067;48.134;8.378;2023-06-10T03:26:36;12.20;92.90
49236;DHT22;35067;48.134;8.378;2023-06-10T03:27:37;12.20;93.10
49236;DHT22;35067;48.134;8.378;2023-06-10T03:28:38;12.10;93.10
49236;DHT22;35067;48.134;8.378;2023-06-10T03:29:39;12.10;93.30
49236;DHT22;35067;48.134;8.378;2023-06-10T03:30:40;12.10;93.70
49236;DHT22;35067;48.134;8.378;2023-06-10T03:31:41;12.00;93.90
49236;DHT22;35067;48.134;8.378;2023-06-10T03:32:42;12.00;94.00
49236;DHT22;35067;48.134;8.378;2023-06-10T03:33:43;12.00;94.10
49236;DHT22;35067;48.134;8.378;2023-06-10T03:34:44;12.00;94.10
49236;DHT22;35067;48.134;8.378;2023-06-10T03:35:46;12.00;94.10
49236;DHT22;35067;48.134;8.378;2023-06-10T03:36:46;12.00;94.30
49236;DHT22;35067;48.134;8.378;2023-06-10T03:37:47;12.00;94.30
49236;DHT22;35067;48.134;8.378;2023-06-10T03:38:48;12.00;94.20
49236;DHT22;35067;48.134;8.378;2023-06-10T03:39:52;12.10;94.40
49236;DHT22;35067;48.134;8.378;2023-06-10T03:40:52;12.00;94.40
49236;DHT22;35067;48.134;8.378;2023-06-10T03:41:53;12.00;94.50
49236;DHT22;35067;48.134;8.378;2023-06-10T03:42:55;12.00;94.40
49236;DHT22;35067;48.134;8.378;2023-06-10T03:43:56;12.10;94.50
49236;DHT22;35067;48.134;8.378;2023-06-10T03:44:57;12.00;94.40
49236;DHT22;35067;48.134;8.378;2023-06-10T03:45:58;12.10;94.40
49236;DHT22;35067;48.134;8.378;2023-06-10T03:47:01;12.10;94.40
49236;DHT22;35067;48.134;8.378;2023-06-10T03:48:02;12.10;94.50
49236;DHT22;35067;48.134;8.378;2023-06-10T03:49:03;12.10;94.40
49236;DHT22;35067;48.134;8.378;2023-06-10T03:50:05;12.20;94.30
49236;DHT22;35067;48.134;8.378;2023-06-10T03:51:07;12.20;94.20
49236;DHT22;35067;48.134;8.378;2023-06-10T03:52:07;12.20;94.20
49236;DHT22;35067;48.134;8.378;2023-06-10T03:53:08;12.20;94.20
49236;DHT22;35067;48.134;8.378;2023-06-10T03:54:09;12.20;94.10
49236;DHT22;35067;48.134;8.378;2023-06-10T03:55:10;12.20;93.90
49236;DHT22;35067;48.134;8.378;2023-06-10T03:56:11;12.20;93.80
49236;DHT22;35067;48.134;8.378;2023-06-10T03:57:12;12.10;94.00
49236;DHT22;35067;48.134;8.378;2023-06-10T03:58:13;12.10;94.10
49236;DHT22;35067;48.134;8.378;2023-06-10T03:59:15;12.10;94.10
49236;DHT22;35067;48.134;8.378;2023-06-10T04:00:16;12.10;94.20
49236;DHT22;35067;48.134;8.378;2023-06-10T04:01:17;12.20;94.10
49236;DHT22;35067;48.134;8.378;2023-06-10T04:02:21;12.20;94.00
49236;DHT22;35067;48.134;8.378;2023-06-10T04:03:22;12.20;93.80
49236;DHT22;35067;48.134;8.378;2023-06-10T04:04:24;12.20;93.90
49236;DHT22;35067;48.134;8.378;2023-06-10T04:05:25;12.20;94.00
49236;DHT22;35067;48.134;8.378;2023-06-10T04:06:26;12.10;94.00
49236;DHT22;35067;48.134;8.378;2023-06-10T04:07:29;12.10;94.20
49236;DHT22;35067;48.134;8.378;2023-06-10T04:08:31;12.20;94.00
49236;DHT22;35067;48.134;8.378;2023-06-10T04:09:33;12.20;94.00
49236;DHT22;35067;48.134;8.378;2023-06-10T04:10:34;12.20;94.60
49236;DHT22;35067;48.134;8.378;2023-06-10T04:11:35;12.20;94.10
49236;DHT22;35067;48.134;8.378;2023-06-10T04:12:36;12.20;94.10
49236;DHT22;35067;48.134;8.378;2023-06-10T04:13:37;12.30;94.10
49236;DHT22;35067;48.134;8.378;2023-06-10T04:14:39;12.30;94.00
49236;DHT22;35067;48.134;8.378;2023-06-10T04:15:40;12.30;94.10
49236;DHT22;35067;48.134;8.378;2023-06-10T04:16:41;12.30;94.10
49236;DHT22;35067;48.134;8.378;2023-06-10T04:17:43;12.40;94.10
49236;DHT22;35067;48.134;8.378;2023-06-10T04:18:44;12.30;94.10
49236;DHT22;35067;48.134;8.378;2023-06-10T04:19:45;12.20;94.30
49236;DHT22;35067;48.134;8.378;2023-06-10T04:20:47;12.30;94.50
49236;DHT22;35067;48.134;8.378;2023-06-10T04:21:48;12.30;94.40
49236;DHT22;35067;48.134;8.378;2023-06-10T04:22:50;12.40;94.20
49236;DHT22;35067;48.134;8.378;2023-06-10T04:23:51;12.30;94.10
49236;DHT22;35067;48.134;8.378;2023-06-10T04:24:52;12.30;94.10
49236;DHT22;35067;48.134;8.378;2023-06-10T04:25:53;12.40;93.90
49236;DHT22;35067;48.134;8.378;2023-06-10T04:26:54;12.30;94.10
49236;DHT22;35067;48.134;8.378;2023-06-10T04:27:55;12.40;94.00
49236;DHT22;35067;48.134;8.378;2023-06-10T04:28:55;12.40;93.90
49236;DHT22;35067;48.134;8.378;2023-06-10T04:29:56;12.40;93.90
49236;DHT22;35067;48.134;8.378;2023-06-10T04:30:57;12.40;93.90
49236;DHT22;35067;48.134;8.378;2023-06-10T04:31:58;12.40;93.90
49236;DHT22;35067;48.134;8.378;2023-06-10T04:33:00;12.50;94.10
49236;DHT22;35067;48.134;8.378;2023-06-10T04:34:02;12.40;94.10
49236;DHT22;35067;48.134;8.378;2023-06-10T04:35:03;12.40;94.20
49236;DHT22;35067;48.134;8.378;2023-06-10T04:36:05;12.50;94.00
49236;DHT22;35067;48.134;8.378;2023-06-10T04:37:07;12.50;94.00
49236;DHT22;35067;48.134;8.378;2023-06-10T04:38:08;12.50;94.30
49236;DHT22;35067;48.134;8.378;2023-06-10T04:39:10;12.60;93.50
49236;DHT22;35067;48.134;8.378;2023-06-10T04:40:11;12.60;93.40
49236;DHT22;35067;48.134;8.378;2023-06-10T04:41:12;12.50;93.60
49236;DHT22;35067;48.134;8.378;2023-06-10T04:42:12;12.60;93.50
49236;DHT22;35067;48.134;8.378;2023-06-10T04:43:13;12.60;93.40
49236;DHT22;35067;48.134;8.378;2023-06-10T04:44:14;12.60;93.40
49236;DHT22;35067;48.134;8.378;2023-06-10T04:45:14;12.60;93.50
49236;DHT22;35067;48.134;8.378;2023-06-10T04:46:15;12.70;93.60
49236;DHT22;35067;48.134;8.378;2023-06-10T04:47:16;12.60;94.00
49236;DHT22;35067;48.134;8.378;2023-06-10T04:48:17;12.50;94.20
49236;DHT22;35067;48.134;8.378;2023-06-10T04:49:18;12.60;94.50
49236;DHT22;35067;48.134;8.378;2023-06-10T04:50:19;12.60;94.30
49236;DHT22;35067;48.134;8.378;2023-06-10T04:51:20;12.60;94.40
49236;DHT22;35067;48.134;8.378;2023-06-10T04:52:22;12.60;94.60
49236;DHT22;35067;48.134;8.378;2023-06-10T04:53:22;12.70;94.50
49236;DHT22;35067;48.134;8.378;2023-06-10T04:54:23;12.70;94.50
49236;DHT22;35067;48.134;8.378;2023-06-10T04:55:25;12.70;94.60
49236;DHT22;35067;48.134;8.378;2023-06-10T04:56:26;12.80;94.60
49236;DHT22;35067;48.134;8.378;2023-06-10T04:57:27;12.80;94.40
49236;DHT22;35067;48.134;8.378;2023-06-10T04:58:28;12.80;94.50
49236;DHT22;35067;48.134;8.378;2023-06-10T04:59:28;12.90;94.40
49236;DHT22;35067;48.134;8.378;2023-06-10T05:00:30;13.00;94.40
49236;DHT22;35067;48.134;8.378;2023-06-10T05:01:31;13.10;94.40
49236;DHT22;35067;48.134;8.378;2023-06-10T05:02:31;13.10;94.30
49236;DHT22;35067;48.134;8.378;2023-06-10T05:03:33;13.20;94.20
49236;DHT22;35067;48.134;8.378;2023-06-10T05:04:34;13.20;94.10
49236;DHT22;35067;48.134;8.378;2023-06-10T05:05:35;13.20;93.90
49236;DHT22;35067;48.134;8.378;2023-06-10T05:06:36;13.20;94.10
49236;DHT22;35067;48.134;8.378;2023-06-10T05:07:38;13.30;93.90
49236;DHT22;35067;48.134;8.378;2023-06-10T05:08:39;13.40;93.90
49236;DHT22;35067;48.134;8.378;2023-06-10T05:09:39;13.40;93.80
49236;DHT22;35067;48.134;8.378;2023-06-10T05:10:42;13.40;93.60
49236;DHT22;35067;48.134;8.378;2023-06-10T05:11:42;13.40;93.40
49236;DHT22;35067;48.134;8.378;2023-06-10T05:12:43;13.50;93.30
49236;DHT22;35067;48.134;8.378;2023-06-10T05:13:44;13.50;93.50
49236;DHT22;35067;48.134;8.378;2023-06-10T05:14:45;13.60;93.40
49236;DHT22;35067;48.134;8.378;2023-06-10T05:15:46;13.70;93.10
49236;DHT22;35067;48.134;8.378;2023-06-10T05:16:48;13.70;92.70
49236;DHT22;35067;48.134;8.378;2023-06-10T05:17:49;13.70;92.90
49236;DHT22;35067;48.134;8.378;2023-06-10T05:18:50;13.70;92.90
49236;DHT22;35067;48.134;8.378;2023-06-10T05:19:52;13.80;92.80
49236;DHT22;35067;48.134;8.378;2023-06-10T05:20:53;13.80;92.70
49236;DHT22;35067;48.134;8.378;2023-06-10T05:21:54;13.90;92.50
49236;DHT22;35067;48.134;8.378;2023-06-10T05:22:55;14.00;92.90
49236;DHT22;35067;48.134;8.378;2023-06-10T05:23:56;14.00;92.20
49236;DHT22;35067;48.134;8.378;2023-06-10T05:24:57;14.10;92.20
49236;DHT22;35067;48.134;8.378;2023-06-10T05:25:58;14.10;92.10
49236;DHT22;35067;48.134;8.378;2023-06-10T05:26:59;14.20;91.90
49236;DHT22;35067;48.134;8.378;2023-06-10T05:28:01;14.20;91.80
49236;DHT22;35067;48.134;8.378;2023-06-10T05:29:03;14.10;92.00
49236;DHT22;35067;48.134;8.378;2023-06-10T05:30:05;14.20;92.20
49236;DHT22;35067;48.134;8.378;2023-06-10T05:31:07;14.20;92.20
49236;DHT22;35067;48.134;8.378;2023-06-10T05:32:08;14.20;92.50
49236;DHT22;35067;48.134;8.378;2023-06-10T05:33:09;14.20;92.60
49236;DHT22;35067;48.134;8.378;2023-06-10T05:34:10;14.20;92.40
49236;DHT22;35067;48.134;8.378;2023-06-10T05:35:10;14.20;92.30
49236;DHT22;35067;48.134;8.378;2023-06-10T05:36:11;14.20;92.40
49236;DHT22;35067;48.134;8.378;2023-06-10T05:37:12;14.30;92.50
49236;DHT22;35067;48.134;8.378;2023-06-10T05:38:14;14.20;92.50
49236;DHT22;35067;48.134;8.378;2023-06-10T05:39:15;14.30;92.20
49236;DHT22;35067;48.134;8.378;2023-06-10T05:40:15;14.50;91.90
49236;DHT22;35067;48.134;8.378;2023-06-10T05:41:18;14.50;91.60
49236;DHT22;35067;48.134;8.378;2023-06-10T05:42:18;14.60;91.50
49236;DHT22;35067;48.134;8.378;2023-06-10T05:43:19;14.60;91.40
49236;DHT22;35067;48.134;8.378;2023-06-10T05:44:20;14.70;91.30
49236;DHT22;35067;48.134;8.378;2023-06-10T05:45:21;14.70;91.40
49236;DHT22;35067;48.134;8.378;2023-06-10T05:46:22;14.80;91.30
49236;DHT22;35067;48.134;8.378;2023-06-10T05:47:24;14.90;91.20
49236;DHT22;35067;48.134;8.378;2023-06-10T05:48:25;14.80;91.30
49236;DHT22;35067;48.134;8.378;2023-06-10T05:49:26;14.80;91.20
49236;DHT22;35067;48.134;8.378;2023-06-10T05:50:27;14.90;91.10
49236;DHT22;35067;48.134;8.378;2023-06-10T05:51:28;14.90;91.10
49236;DHT22;35067;48.134;8.378;2023-06-10T05:52:29;14.90;91.30
49236;DHT22;35067;48.134;8.378;2023-06-10T05:53:31;14.90;91.50
49236;DHT22;35067;48.134;8.378;2023-06-10T05:54:32;15.00;91.40
49236;DHT22;35067;48.134;8.378;2023-06-10T05:55:33;15.00;91.60
49236;DHT22;35067;48.134;8.378;2023-06-10T05:56:35;15.00;91.70
49236;DHT22;35067;48.134;8.378;2023-06-10T05:57:35;15.10;91.70
49236;DHT22;35067;48.134;8.378;2023-06-10T05:58:36;15.10;91.40
49236;DHT22;35067;48.134;8.378;2023-06-10T05:59:37;15.20;91.40
49236;DHT22;35067;48.134;8.378;2023-06-10T06:00:39;15.20;91.10
49236;DHT22;35067;48.134;8.378;2023-06-10T06:01:40;15.30;90.60
49236;DHT22;35067;48.134;8.378;2023-06-10T06:02:41;15.20;90.90
49236;DHT22;35067;48.134;8.378;2023-06-10T06:03:41;15.20;91.40
49236;DHT22;35067;48.134;8.378;2023-06-10T06:04:42;15.30;91.30
49236;DHT22;35067;48.134;8.378;2023-06-10T06:05:44;15.40;91.10
49236;DHT22;35067;48.134;8.378;2023-06-10T06:06:46;15.50;90.80
49236;DHT22;35067;48.134;8.378;2023-06-10T06:07:47;15.60;90.70
49236;DHT22;35067;48.134;8.378;2023-06-10T06:08:47;15.60;90.80
49236;DHT22;35067;48.134;8.378;2023-06-10T06:09:48;15.50;90.80
49236;DHT22;35067;48.134;8.378;2023-06-10T06:10:49;15.70;90.10
49236;DHT22;35067;48.134;8.378;2023-06-10T06:11:50;15.70;90.60
49236;DHT22;35067;48.134;8.378;2023-06-10T06:12:52;15.70;90.30
49236;DHT22;35067;48.134;8.378;2023-06-10T06:13:53;15.70;90.00
49236;DHT22;35067;48.134;8.378;2023-06-10T06:14:54;15.70;88.50
49236;DHT22;35067;48.134;8.378;2023-06-10T06:15:54;15.90;87.30
49236;DHT22;35067;48.134;8.378;2023-06-10T06:16:55;16.00;87.00
49236;DHT22;35067;48.134;8.378;2023-06-10T06:17:56;16.10;86.60
49236;DHT22;35067;48.134;8.378;2023-06-10T06:18:57;16.30;86.00
49236;DHT22;35067;48.134;8.378;2023-06-10T06:19:58;16.30;84.90
49236;DHT22;35067;48.134;8.378;2023-06-10T06:20:59;16.40;84.70
49236;DHT22;35067;48.134;8.378;2023-06-10T06:22:00;16.40;84.80
49236;DHT22;35067;48.134;8.378;2023-06-10T06:23:01;16.50;83.90
49236;DHT22;35067;48.134;8.378;2023-06-10T06:24:02;16.50;83.50
49236;DHT22;35067;48.134;8.378;2023-06-10T06:25:04;16.50;83.30
49236;DHT22;35067;48.134;8.378;2023-06-10T06:26:05;16.60;82.50
49236;DHT22;35067;48.134;8.378;2023-06-10T06:27:05;16.50;82.30
49236;DHT22;35067;48.134;8.378;2023-06-10T06:28:07;16.50;84.80
49236;DHT22;35067;48.134;8.378;2023-06-10T06:29:09;16.60;84.30
49236;DHT22;35067;48.134;8.378;2023-06-10T06:30:10;16.60;82.80
49236;DHT22;35067;48.134;8.378;2023-06-10T06:31:12;16.60;83.80
49236;DHT22;35067;48.134;8.378;2023-06-10T06:32:13;16.70;83.10